Time;durP1;ratioP1;P1;durP2;ratioP2;P2;SDS_P1;SDS_P2;PMS_P1;PMS_P2;Temp;Humidity;BMP_temperature;BMP_pressure;BME280_temperature;BME280_humidity;BME280_pressure;Samples;Min_cycle;Max_cycle;Signal;HPM_P1;HPM_P2
2023/06/22 00:01:50;;;;;;;2.63;2.30;;;25.70;58.30;;;;;;5014546;28;89291;-89
2023/06/22 00:04:15;;;;;;;3.40;2.30;;;25.70;58.40;;;;;;5015986;28;87372;-89
2023/06/22 00:06:41;;;;;;;3.55;2.28;;;25.70;58.30;;;;;;5015711;28;88138;-91
2023/06/22 00:09:07;;;;;;;3.55;2.40;;;25.70;58.30;;;;;;5015141;28;88825;-89
2023/06/22 00:11:33;;;;;;;3.15;2.60;;;25.70;58.10;;;;;;5034215;28;87454;-91
2023/06/22 00:14:02;;;;;;;3.92;2.80;;;25.70;58.20;;;;;;5014465;28;87361;-89
2023/06/22 00:16:28;;;;;;;;;;;25.70;58.20;;;;;;5016260;28;89452;-90
2023/06/22 00:18:54;;;;;;;3.92;2.58;;;25.70;58.30;;;;;;5017385;28;90123;-90
2023/06/22 00:21:22;;;;;;;4.60;2.58;;;25.70;58.40;;;;;;5013574;28;90304;-88
2023/06/22 00:23:48;;;;;;;3.25;2.78;;;25.70;58.20;;;;;;5016313;28;86872;-89
2023/06/22 00:28:58;;;;;;;3.00;2.30;;;25.70;58.10;;;;;;5032647;28;87379;-90
2023/06/22 00:31:23;;;;;;;3.80;2.55;;;25.70;58.10;;;;;;5016656;28;89468;-91
2023/06/22 00:33:50;;;;;;;4.20;2.30;;;25.70;58.20;;;;;;5033699;28;87560;-91
2023/06/22 00:36:18;;;;;;;3.00;2.45;;;25.70;58.20;;;;;;5033889;27;86662;-89
2023/06/22 00:39:03;;;;;;;2.40;1.93;;;25.70;58.20;;;;;;5034343;28;87761;-88
2023/06/22 00:41:29;;;;;;;2.70;2.13;;;25.70;58.30;;;;;;5032353;28;87563;-90
2023/06/22 00:43:55;;;;;;;4.00;2.78;;;25.70;58.40;;;;;;5014453;28;88428;-89
2023/06/22 00:46:22;;;;;;;4.20;2.70;;;25.70;58.30;;;;;;5014566;28;89334;-89
2023/06/22 00:48:48;;;;;;;4.22;2.63;;;25.70;58.30;;;;;;5016088;28;90310;-89
2023/06/22 00:51:14;;;;;;;3.88;2.53;;;25.70;58.30;;;;;;5014340;28;89131;-89
2023/06/22 00:53:40;;;;;;;2.75;2.25;;;25.70;58.20;;;;;;5016232;28;88160;-90
2023/06/22 00:56:08;;;;;;;2.85;2.35;;;25.70;58.30;;;;;;5014455;28;89360;-88
2023/06/22 00:58:35;;;;;;;3.00;2.33;;;25.60;58.20;;;;;;5014270;28;90649;-90
2023/06/22 01:01:02;;;;;;;3.33;2.78;;;25.70;58.40;;;;;;5015944;28;89512;-90
2023/06/22 01:03:27;;;;;;;4.32;2.80;;;25.70;58.50;;;;;;5033787;28;87484;-90
2023/06/22 01:06:16;;;;;;;3.35;2.53;;;25.70;58.30;;;;;;5016218;28;88687;-90
2023/06/22 01:08:51;;;;;;;3.30;2.53;;;25.60;58.00;;;;;;5033869;28;93440;-88
2023/06/22 01:11:23;;;;;;;2.83;2.40;;;25.70;58.10;;;;;;5032774;28;91207;-89
2023/06/22 01:14:01;;;;;;;3.00;2.50;;;25.70;58.30;;;;;;5030400;28;87563;-89
2023/06/22 01:16:33;;;;;;;2.42;2.22;;;25.70;58.10;;;;;;5013955;28;88377;-87
2023/06/22 01:19:07;;;;;;;2.58;2.17;;;25.70;58.00;;;;;;5014161;28;90813;-91
2023/06/22 01:21:33;;;;;;;3.63;2.13;;;25.70;58.00;;;;;;5031143;28;87938;-90
2023/06/22 01:24:18;;;;;;;4.00;2.80;;;25.70;58.10;;;;;;5034002;28;87798;-90
2023/06/22 01:26:59;;;;;;;2.75;2.25;;;25.60;58.10;;;;;;5013335;28;92833;-90
2023/06/22 01:29:26;;;;;;;4.07;2.53;;;25.60;58.00;;;;;;5014630;28;90932;-91
2023/06/22 01:31:54;;;;;;;2.90;2.30;;;25.60;58.20;;;;;;5015043;28;88938;-88
2023/06/22 01:34:21;;;;;;;3.75;2.10;;;25.60;58.10;;;;;;5033311;28;88010;-89
2023/06/22 01:37:06;;;;;;;2.47;1.98;;;25.60;58.10;;;;;;5012364;27;89728;-88
2023/06/22 01:39:32;;;;;;;4.10;2.40;;;25.60;58.10;;;;;;5033490;28;87809;-90
2023/06/22 01:41:59;;;;;;;2.97;2.28;;;25.60;58.60;;;;;;5031764;28;87706;-89
2023/06/22 01:44:26;;;;;;;3.92;2.63;;;25.60;58.00;;;;;;5013846;28;88823;-90
2023/06/22 01:46:52;;;;;;;3.67;2.38;;;25.60;58.00;;;;;;5013815;28;89153;-89
2023/06/22 01:49:18;;;;;;;2.47;2.15;;;25.60;57.90;;;;;;5013092;28;90483;-89
2023/06/22 01:51:44;;;;;;;3.10;2.47;;;25.60;58.00;;;;;;5014763;28;90142;-89
2023/06/22 01:54:09;;;;;;;2.63;1.95;;;25.60;58.40;;;;;;5015648;28;87339;-88
2023/06/22 01:56:35;;;;;;;2.90;2.28;;;25.60;57.90;;;;;;5015438;28;94753;-89
2023/06/22 01:59:18;;;;;;;3.15;2.30;;;25.60;58.10;;;;;;5013276;28;91470;-90
2023/06/22 02:02:15;;;;;;;4.97;2.90;;;25.60;58.00;;;;;;5030594;27;92276;-89
2023/06/22 02:04:51;;;;;;;2.65;2.20;;;25.60;58.10;;;;;;5004070;28;86998;-90
2023/06/22 02:07:19;;;;;;;2.72;2.40;;;25.60;58.10;;;;;;5031588;28;86949;-89
2023/06/22 02:09:48;;;;;;;3.03;2.33;;;25.60;58.00;;;;;;5030530;28;89356;-88
2023/06/22 02:12:17;;;;;;;3.75;2.70;;;25.60;58.20;;;;;;5015754;28;89861;-89
2023/06/22 02:14:44;;;;;;;3.65;2.30;;;25.60;57.90;;;;;;5014639;28;87623;-89
2023/06/22 02:17:10;;;;;;;3.13;2.25;;;25.60;58.00;;;;;;5014339;28;89324;-90
2023/06/22 02:19:37;;;;;;;2.65;2.22;;;25.60;58.10;;;;;;5013463;28;90230;-89
2023/06/22 02:22:03;;;;;;;2.30;2.00;;;25.60;58.10;;;;;;5030384;28;87249;-88
2023/06/22 02:24:31;;;;;;;3.17;2.10;;;25.60;58.00;;;;;;5031764;28;88339;-91
2023/06/22 02:26:58;;;;;;;2.85;2.38;;;25.50;58.10;;;;;;5014530;28;89948;-89
2023/06/22 02:29:24;;;;;;;3.45;2.58;;;25.60;58.00;;;;;;5014351;28;89273;-87
2023/06/22 02:31:49;;;;;;;2.45;2.13;;;25.60;58.00;;;;;;5004081;28;88936;-89
2023/06/22 02:34:18;;;;;;;2.88;2.15;;;25.60;58.00;;;;;;5012758;28;87800;-89
2023/06/22 02:36:50;;;;;;;3.15;2.10;;;25.60;57.90;;;;;;5031959;28;87485;-89
2023/06/22 02:39:25;;;;;;;3.53;2.42;;;25.60;58.00;;;;;;5014567;28;90350;-88
2023/06/22 02:41:53;;;;;;;3.10;2.17;;;25.50;57.80;;;;;;5029421;28;89306;-90
2023/06/22 02:44:20;;;;;;;3.83;2.25;;;25.50;57.80;;;;;;5014241;28;87963;-91
2023/06/22 02:46:46;;;;;;;2.67;2.20;;;25.60;58.00;;;;;;5029519;28;89642;-90
2023/06/22 02:49:12;;;;;;;3.38;2.42;;;25.50;57.90;;;;;;5012780;28;91876;-88
2023/06/22 02:51:41;;;;;;;2.65;2.20;;;25.50;57.90;;;;;;5016231;28;90381;-90
2023/06/22 02:54:07;;;;;;;3.28;2.25;;;25.60;58.00;;;;;;5033653;28;87824;-89
2023/06/22 02:56:32;;;;;;;3.10;2.15;;;25.50;58.00;;;;;;5035910;28;87593;-91
2023/06/22 02:59:01;;;;;;;2.85;2.17;;;25.50;58.10;;;;;;5034498;28;88309;-89
2023/06/22 03:01:39;;;;;;;2.87;2.07;;;25.50;57.90;;;;;;5036002;28;87956;-92
2023/06/22 03:04:08;;;;;;;2.65;2.30;;;25.50;58.00;;;;;;5015491;28;94988;-89
2023/06/22 03:06:35;;;;;;;2.60;2.10;;;25.50;58.20;;;;;;5034958;28;88157;-89
2023/06/22 03:09:03;;;;;;;2.80;2.55;;;25.50;58.20;;;;;;5017177;28;90058;-88
2023/06/22 03:11:30;;;;;;;2.33;2.03;;;25.50;58.00;;;;;;5016794;28;89659;-89
2023/06/22 03:13:56;;;;;;;2.85;2.22;;;25.50;58.00;;;;;;5017496;28;87939;-87
2023/06/22 03:16:21;;;;;;;2.72;2.35;;;25.50;58.10;;;;;;5015481;28;88903;-88
2023/06/22 03:18:47;;;;;;;2.53;1.77;;;25.50;58.10;;;;;;5017024;28;89310;-88
2023/06/22 03:21:15;;;;;;;4.88;2.65;;;25.50;58.10;;;;;;5015500;28;90332;-89
2023/06/22 03:23:40;;;;;;;2.85;2.42;;;25.50;58.00;;;;;;5016081;28;88296;-89
2023/06/22 03:26:06;;;;;;;3.08;2.05;;;25.50;58.10;;;;;;5015735;27;88207;-87
2023/06/22 03:28:32;;;;;;;3.17;2.20;;;25.40;58.00;;;;;;5017187;28;89238;-89
2023/06/22 03:30:58;;;;;;;3.20;2.13;;;25.50;58.10;;;;;;5015904;28;90223;-88
2023/06/22 03:33:24;;;;;;;3.00;2.67;;;25.50;57.90;;;;;;5015231;27;87131;-90
2023/06/22 03:35:53;;;;;;;2.22;1.92;;;25.50;58.00;;;;;;5017157;28;90078;-89
2023/06/22 03:38:19;;;;;;;3.45;2.33;;;25.50;58.00;;;;;;5014690;28;90578;-90
2023/06/22 03:40:44;;;;;;;2.75;2.05;;;25.50;57.90;;;;;;5034296;28;87362;-89
2023/06/22 03:43:10;;;;;;;3.45;2.40;;;25.50;58.00;;;;;;5015850;28;88292;-90
2023/06/22 03:45:35;;;;;;;2.13;1.80;;;25.50;58.00;;;;;;5014834;28;89297;-90
2023/06/22 03:48:01;;;;;;;1.80;1.70;;;25.50;58.00;;;;;;5016410;28;90954;-88
2023/06/22 03:50:27;;;;;;;3.83;2.13;;;25.50;57.80;;;;;;5016912;28;90214;-90
2023/06/22 03:52:53;;;;;;;2.58;2.08;;;25.50;58.00;;;;;;5033893;28;87434;-88
2023/06/22 03:55:21;;;;;;;3.00;2.20;;;25.50;57.90;;;;;;5034251;28;87564;-86
2023/06/22 03:57:47;;;;;;;2.95;2.47;;;25.50;57.90;;;;;;5033980;28;87824;-89
2023/06/22 04:00:13;;;;;;;2.45;2.20;;;25.50;57.80;;;;;;5032992;27;87788;-89
2023/06/22 04:02:39;;;;;;;3.13;2.30;;;25.50;57.90;;;;;;5015660;28;88730;-89
2023/06/22 04:05:05;;;;;;;2.58;2.13;;;25.50;57.90;;;;;;5015136;28;89267;-88
2023/06/22 04:07:31;;;;;;;3.25;2.17;;;25.40;57.60;;;;;;5034260;27;90236;-91
2023/06/22 04:09:59;;;;;;;2.72;2.03;;;25.40;57.80;;;;;;5016294;28;90469;-88
2023/06/22 04:12:25;;;;;;;2.65;1.92;;;25.40;57.70;;;;;;5034205;28;94493;-88
2023/06/22 04:14:50;;;;;;;2.53;1.95;;;25.40;57.90;;;;;;5033218;28;87939;-90
2023/06/22 04:17:17;;;;;;;2.42;2.03;;;25.40;57.70;;;;;;5031732;27;89465;-90
2023/06/22 04:19:43;;;;;;;2.95;2.40;;;25.40;57.80;;;;;;5014755;28;89161;-87
2023/06/22 04:22:09;;;;;;;3.03;2.35;;;25.40;57.80;;;;;;5014383;28;87782;-89
2023/06/22 04:24:35;;;;;;;2.25;1.98;;;25.40;57.80;;;;;;5015161;28;89279;-89
2023/06/22 04:27:02;;;;;;;2.70;2.20;;;25.40;57.70;;;;;;5015747;28;90453;-89
2023/06/22 04:29:29;;;;;;;2.33;2.08;;;25.40;57.80;;;;;;5015451;28;90129;-89
2023/06/22 04:31:58;;;;;;;3.50;2.42;;;25.40;57.80;;;;;;5016114;28;87553;-89
2023/06/22 04:34:26;;;;;;;3.27;2.57;;;25.40;57.80;;;;;;5033031;28;86936;-89
2023/06/22 04:36:52;;;;;;;2.95;2.47;;;25.40;57.80;;;;;;5015873;28;90548;-88
2023/06/22 04:39:18;;;;;;;2.75;2.20;;;25.40;57.80;;;;;;5033494;28;87581;-90
2023/06/22 04:41:45;;;;;;;2.28;2.08;;;25.40;57.90;;;;;;5017342;28;88079;-89
2023/06/22 04:44:25;;;;;;;2.50;2.30;;;25.40;57.80;;;;;;5017478;28;88892;-89
2023/06/22 04:46:53;;;;;;;2.95;2.15;;;25.40;57.90;;;;;;5014441;28;90439;-90
2023/06/22 04:49:21;;;;;;;4.43;2.22;;;25.40;57.90;;;;;;5015940;28;91192;-90
2023/06/22 04:51:46;;;;;;;2.45;2.15;;;25.40;57.80;;;;;;5015252;28;88520;-90
2023/06/22 04:54:12;;;;;;;2.90;1.90;;;25.40;57.80;;;;;;5016474;28;89917;-90
2023/06/22 04:56:40;;;;;;;3.35;2.35;;;25.40;57.90;;;;;;5015246;28;89626;-90
2023/06/22 04:59:06;;;;;;;3.42;2.70;;;25.40;57.70;;;;;;5015588;28;89386;-89
2023/06/22 05:01:33;;;;;;;3.60;2.30;;;25.40;58.00;;;;;;5013769;28;87271;-88
2023/06/22 05:04:01;;;;;;;4.05;2.15;;;25.40;57.90;;;;;;5015060;28;89280;-89
2023/06/22 05:06:27;;;;;;;2.20;1.92;;;25.40;58.00;;;;;;5014378;28;90554;-89
2023/06/22 05:09:00;;;;;;;3.10;2.22;;;25.40;57.90;;;;;;5015582;28;92295;-90
2023/06/22 05:11:28;;;;;;;2.65;2.25;;;25.40;57.90;;;;;;5016017;27;87127;-89
2023/06/22 05:13:54;;;;;;;2.33;2.00;;;25.40;57.90;;;;;;5033907;28;88622;-91
2023/06/22 05:16:23;;;;;;;3.03;2.30;;;25.40;57.90;;;;;;5015695;28;91549;-90
2023/06/22 05:18:55;;;;;;;;;;;25.40;57.80;;;;;;5015294;28;90271;-89
2023/06/22 05:21:25;;;;;;;2.53;2.13;;;25.40;57.90;;;;;;5014764;28;87514;-89
2023/06/22 05:23:52;;;;;;;4.95;2.50;;;25.40;58.10;;;;;;5033065;28;87742;-91
2023/06/22 05:26:20;;;;;;;3.80;2.10;;;25.40;57.90;;;;;;5033494;28;89027;-90
2023/06/22 05:28:46;;;;;;;2.40;1.85;;;25.40;57.90;;;;;;5013507;28;88988;-89
2023/06/22 05:31:16;;;;;;;3.05;2.30;;;25.40;57.80;;;;;;5032537;28;87614;-91
2023/06/22 05:33:41;;;;;;;;;;;25.40;57.70;;;;;;5015083;28;89810;-91
2023/06/22 05:36:08;;;;;;;2.22;2.03;;;25.40;57.80;;;;;;5016675;28;89399;-90
2023/06/22 05:38:34;;;;;;;4.47;3.65;;;25.40;57.80;;;;;;5015718;28;90395;-89
2023/06/22 05:40:59;;;;;;;8.43;5.45;;;25.30;58.00;;;;;;5013290;28;88798;-87
2023/06/22 05:43:25;;;;;;;11.15;7.85;;;25.30;59.00;;;;;;5032937;28;87125;-86
2023/06/22 05:45:50;;;;;;;13.45;8.68;;;25.20;61.30;;;;;;5013546;28;89285;-89
2023/06/22 05:48:16;;;;;;;13.95;10.45;;;25.10;61.60;;;;;;5033304;28;87654;-90
2023/06/22 05:50:42;;;;;;;18.33;9.90;;;25.10;62.40;;;;;;5013636;28;87368;-90
2023/06/22 05:53:08;;;;;;;14.02;11.00;;;25.00;62.60;;;;;;5012629;28;89468;-89
2023/06/22 05:55:33;;;;;;;16.25;11.40;;;24.90;62.90;;;;;;5012857;28;90948;-88
2023/06/22 05:57:59;;;;;;;16.08;10.60;;;24.90;63.10;;;;;;5030436;28;87620;-87
2023/06/22 06:00:25;;;;;;;13.35;10.77;;;24.90;63.00;;;;;;5011961;28;87696;-88
2023/06/22 06:02:50;;;;;;;13.57;10.43;;;24.80;63.10;;;;;;5011457;28;90377;-86
2023/06/22 06:05:16;;;;;;;13.02;10.38;;;24.80;63.40;;;;;;5029683;28;88547;-85
2023/06/22 06:07:45;;;;;;;18.52;11.73;;;24.70;63.50;;;;;;5030542;28;89079;-88
2023/06/22 06:10:11;;;;;;;17.15;11.52;;;24.70;63.60;;;;;;5013036;28;87131;-88
2023/06/22 06:12:37;;;;;;;15.77;11.38;;;24.70;63.70;;;;;;5010661;28;89399;-87
2023/06/22 06:15:04;;;;;;;14.27;10.63;;;24.70;63.80;;;;;;5012923;28;90819;-87
2023/06/22 06:17:29;;;;;;;14.65;10.23;;;24.70;63.70;;;;;;5011442;28;89199;-87
2023/06/22 06:19:55;;;;;;;14.27;10.95;;;24.70;63.40;;;;;;5011836;28;89042;-88
2023/06/22 06:22:23;;;;;;;16.55;10.20;;;24.70;63.20;;;;;;5010493;28;88398;-86
2023/06/22 06:24:49;;;;;;;15.15;10.48;;;24.70;63.60;;;;;;5013514;28;90252;-87
2023/06/22 06:27:14;;;;;;;12.93;10.30;;;24.70;63.60;;;;;;5014103;28;90653;-88
2023/06/22 06:29:40;;;;;;;14.57;9.77;;;24.70;63.70;;;;;;5015871;28;87921;-87
2023/06/22 06:32:06;;;;;;;16.17;10.48;;;24.70;63.60;;;;;;5034748;28;87528;-87
2023/06/22 06:34:31;;;;;;;13.20;9.60;;;24.70;63.80;;;;;;5032477;28;89778;-86
2023/06/22 06:36:57;;;;;;;13.30;9.80;;;24.70;63.80;;;;;;5015367;28;89015;-84
2023/06/22 06:39:23;;;;;;;15.27;10.15;;;24.70;63.80;;;;;;5033874;28;87196;-89
2023/06/22 06:41:48;;;;;;;13.32;9.90;;;24.80;63.90;;;;;;5035316;28;87001;-87
2023/06/22 06:44:14;;;;;;;12.98;9.43;;;24.80;63.60;;;;;;5016164;28;91341;-86
2023/06/22 06:46:41;;;;;;;14.80;9.68;;;24.90;63.20;;;;;;5033169;28;87356;-88
2023/06/22 06:49:07;;;;;;;13.27;9.73;;;25.00;63.10;;;;;;5016186;28;87784;-88
2023/06/22 06:51:32;;;;;;;12.73;8.85;;;25.00;63.00;;;;;;5035929;28;88336;-89
2023/06/22 06:53:58;;;;;;;15.65;9.23;;;25.10;63.20;;;;;;5020055;28;91310;-85
2023/06/22 06:56:24;;;;;;;16.60;10.45;;;25.00;62.90;;;;;;5039256;28;88381;-92
2023/06/22 06:58:51;;;;;;;12.60;10.32;;;25.00;63.10;;;;;;5020033;28;87682;-90
2023/06/22 07:01:19;;;;;;;14.40;10.15;;;25.00;62.80;;;;;;5036334;27;88350;-92
2023/06/22 07:03:45;;;;;;;16.35;9.70;;;25.00;63.00;;;;;;5033294;27;89334;-88
2023/06/22 07:06:11;;;;;;;11.95;8.15;;;25.10;62.90;;;;;;5032758;28;87460;-84
2023/06/22 07:08:37;;;;;;;12.40;8.27;;;25.20;62.50;;;;;;5033646;28;87779;-91
2023/06/22 07:11:02;;;;;;;10.77;7.00;;;25.20;62.10;;;;;;5031302;28;87429;-86
2023/06/22 07:13:28;;;;;;;10.02;7.18;;;25.20;61.70;;;;;;5018991;28;90701;-90
2023/06/22 07:15:54;;;;;;;13.93;7.57;;;25.20;61.50;;;;;;5030875;28;87891;-89
2023/06/22 07:18:19;;;;;;;10.93;8.40;;;25.20;61.30;;;;;;5030348;28;88760;-88
2023/06/22 07:20:45;;;;;;;13.73;8.68;;;25.20;61.10;;;;;;5033036;28;87975;-91
2023/06/22 07:23:11;;;;;;;11.02;9.02;;;25.20;61.40;;;;;;5032501;28;87894;-87
2023/06/22 07:25:36;;;;;;;11.57;8.38;;;25.10;61.30;;;;;;5030318;28;87337;-84
2023/06/22 07:28:06;;;;;;;13.95;8.50;;;25.10;61.00;;;;;;5027358;28;87989;-85
2023/06/22 07:30:33;;;;;;;10.70;8.82;;;25.10;61.40;;;;;;5011817;28;88106;-88
2023/06/22 07:33:03;;;;;;;10.50;8.38;;;25.10;61.40;;;;;;5030472;28;87952;-85
2023/06/22 07:35:32;;;;;;;13.18;9.05;;;25.10;61.30;;;;;;5013274;28;90369;-86
2023/06/22 07:37:57;;;;;;;11.85;8.65;;;25.10;61.20;;;;;;5033902;28;87303;-86
2023/06/22 07:40:23;;;;;;;12.55;8.55;;;25.20;61.30;;;;;;5017345;28;88029;-89
2023/06/22 07:42:51;;;;;;;11.25;8.27;;;25.10;61.30;;;;;;5033296;28;88386;-84
2023/06/22 07:45:17;;;;;;;9.43;8.15;;;25.20;61.10;;;;;;5035273;28;88403;-90
2023/06/22 07:47:42;;;;;;;11.70;9.60;;;25.10;60.90;;;;;;5034702;28;86895;-91
2023/06/22 07:50:08;;;;;;;11.45;8.65;;;25.20;60.70;;;;;;5033138;28;87563;-86
2023/06/22 07:52:34;;;;;;;9.80;8.40;;;25.10;60.70;;;;;;5033834;28;87518;-91
2023/06/22 07:55:00;;;;;;;10.55;8.95;;;25.10;60.90;;;;;;5014749;28;90987;-89
2023/06/22 07:57:33;;;;;;;13.10;9.25;;;25.10;60.80;;;;;;5033996;28;87802;-88
2023/06/22 08:00:17;;;;;;;11.25;8.93;;;25.00;60.60;;;;;;5036152;28;87330;-90
2023/06/22 08:02:44;;;;;;;10.93;8.80;;;25.10;60.40;;;;;;5034510;28;91806;-89
2023/06/22 08:05:11;;;;;;;12.85;9.05;;;25.10;60.60;;;;;;5035429;28;88168;-89
2023/06/22 08:07:37;;;;;;;9.68;8.45;;;25.10;60.60;;;;;;5033193;28;88111;-88
2023/06/22 08:10:04;;;;;;;10.35;8.82;;;25.10;60.70;;;;;;5032647;28;87682;-91
2023/06/22 08:12:30;;;;;;;12.15;9.40;;;25.10;61.10;;;;;;5015782;28;92755;-86
2023/06/22 08:14:56;;;;;;;12.73;9.30;;;25.10;61.40;;;;;;5034327;28;88026;-89
2023/06/22 08:17:26;;;;;;;13.18;9.57;;;25.10;61.60;;;;;;5016371;28;87565;-89
2023/06/22 08:19:51;;;;;;;11.43;9.55;;;25.10;61.80;;;;;;5033085;28;88134;-86
2023/06/22 08:22:18;;;;;;;10.43;8.20;;;25.10;61.90;;;;;;5033913;28;88336;-89
2023/06/22 08:24:44;;;;;;;12.88;8.88;;;25.20;62.10;;;;;;5015435;28;90336;-90
2023/06/22 08:27:14;;;;;;;12.70;8.90;;;25.20;61.90;;;;;;5036167;28;88306;-87
2023/06/22 08:29:42;;;;;;;12.60;11.27;;;25.20;62.00;;;;;;5014912;28;91880;-90
2023/06/22 08:32:09;;;;;;;12.25;10.00;;;25.20;61.80;;;;;;5032466;28;88657;-87
2023/06/22 08:34:34;;;;;;;12.70;9.90;;;25.20;62.80;;;;;;5032095;27;88402;-89
2023/06/22 08:37:00;;;;;;;12.95;9.88;;;25.20;61.40;;;;;;5033799;28;87040;-90
2023/06/22 08:39:27;;;;;;;11.15;9.23;;;25.20;61.40;;;;;;5030807;28;87492;-89
2023/06/22 08:41:53;;;;;;;15.38;10.05;;;25.20;61.50;;;;;;5015722;28;90687;-87
2023/06/22 08:44:19;;;;;;;13.98;10.68;;;25.20;61.30;;;;;;5032207;28;88424;-89
2023/06/22 08:46:45;;;;;;;12.70;9.27;;;25.20;61.10;;;;;;5013380;28;88203;-93
2023/06/22 08:49:11;;;;;;;16.25;10.52;;;25.20;61.10;;;;;;5012386;28;89139;-88
2023/06/22 08:51:36;;;;;;;13.00;10.70;;;25.20;60.90;;;;;;5013434;28;90332;-88
2023/06/22 08:54:02;;;;;;;13.30;10.32;;;25.20;61.10;;;;;;5016261;28;89040;-93
2023/06/22 08:56:27;;;;;;;13.73;11.65;;;25.20;60.90;;;;;;5032548;28;89092;-89
2023/06/22 08:58:53;;;;;;;14.25;11.43;;;25.20;61.00;;;;;;5032915;28;88370;-89
2023/06/22 09:01:19;;;;;;;11.48;10.38;;;25.20;61.00;;;;;;5033892;28;88550;-90
2023/06/22 09:03:53;;;;;;;15.43;10.20;;;25.20;61.00;;;;;;5032353;28;87759;-90
2023/06/22 09:06:20;;;;;;;13.05;9.57;;;25.20;60.80;;;;;;5013327;28;87189;-90
2023/06/22 09:08:46;;;;;;;12.80;10.55;;;25.20;60.80;;;;;;5014533;28;88747;-89
2023/06/22 09:11:12;;;;;;;13.45;9.38;;;25.20;60.70;;;;;;5031189;28;88022;-89
2023/06/22 09:13:38;;;;;;;10.63;9.10;;;25.20;60.20;;;;;;5031856;28;87525;-85
2023/06/22 09:16:04;;;;;;;9.32;8.32;;;25.20;60.40;;;;;;5013735;28;87866;-92
2023/06/22 09:18:29;;;;;;;14.40;9.18;;;25.20;60.40;;;;;;5030583;28;87528;-89
2023/06/22 09:20:55;;;;;;;15.77;9.52;;;25.20;60.40;;;;;;5013423;28;91287;-92
2023/06/22 09:23:21;;;;;;;15.20;8.75;;;25.20;60.70;;;;;;5032616;28;87076;-90
2023/06/22 09:25:48;;;;;;;26.23;12.20;;;25.30;60.60;;;;;;5032712;28;86946;-88
2023/06/22 09:28:14;;;;;;;19.50;10.90;;;25.30;61.00;;;;;;5032447;28;87356;-92
2023/06/22 09:30:40;;;;;;;30.23;12.30;;;25.30;60.90;;;;;;5012682;28;90635;-90
2023/06/22 09:33:05;;;;;;;17.10;10.45;;;25.30;61.10;;;;;;5032733;28;87494;-88
2023/06/22 09:35:31;;;;;;;22.80;9.93;;;25.30;60.80;;;;;;5032592;28;87734;-88
2023/06/22 09:37:56;;;;;;;22.42;10.43;;;25.30;61.00;;;;;;5031524;27;86788;-88
2023/06/22 09:40:22;;;;;;;26.20;10.63;;;25.40;60.90;;;;;;5031909;28;88587;-92
2023/06/22 09:42:47;;;;;;;18.60;9.35;;;25.40;60.90;;;;;;5032079;28;88827;-86
2023/06/22 09:45:13;;;;;;;25.95;11.05;;;25.30;60.70;;;;;;5015142;28;88875;-93
2023/06/22 09:47:39;;;;;;;20.80;11.07;;;25.30;60.70;;;;;;5035286;28;87417;-84
2023/06/22 09:50:05;;;;;;;27.98;10.90;;;25.30;60.70;;;;;;5035164;28;87634;-91
2023/06/22 09:52:31;;;;;;;23.48;9.80;;;25.30;60.50;;;;;;5034524;28;89997;-88
2023/06/22 09:54:57;;;;;;;16.48;9.13;;;25.30;60.50;;;;;;5037121;28;87313;-86
2023/06/22 09:57:22;;;;;;;17.10;10.15;;;25.40;61.40;;;;;;5034898;28;87908;-85
2023/06/22 09:59:48;;;;;;;31.25;10.20;;;25.40;60.70;;;;;;5034153;28;87909;-86
2023/06/22 10:02:13;;;;;;;16.75;9.40;;;25.30;61.40;;;;;;5016284;28;90076;-91
2023/06/22 10:04:40;;;;;;;22.42;12.75;;;25.40;61.40;;;;;;5034672;27;87681;-85
2023/06/22 10:07:06;;;;;;;20.77;15.77;;;25.30;62.00;;;;;;5035856;28;87414;-87
2023/06/22 10:09:31;;;;;;;20.77;16.10;;;25.30;64.70;;;;;;5031860;28;89019;-88
2023/06/22 10:11:57;;;;;;;25.40;15.88;;;25.20;65.90;;;;;;5018537;28;91584;-94
2023/06/22 10:14:24;;;;;;;20.77;16.02;;;25.20;66.10;;;;;;5033711;28;87617;-89
2023/06/22 10:16:51;;;;;;;20.20;17.95;;;25.20;66.80;;;;;;5035618;28;88084;-86
2023/06/22 10:19:16;;;;;;;22.08;17.50;;;25.20;67.60;;;;;;5033183;28;87871;-88
2023/06/22 10:21:42;;;;;;;25.70;18.02;;;25.20;68.00;;;;;;5034419;28;87532;-87
2023/06/22 10:24:08;;;;;;;24.92;18.83;;;25.10;68.90;;;;;;5027577;28;87181;-88
2023/06/22 10:26:34;;;;;;;27.58;19.10;;;25.10;69.90;;;;;;5016887;28;89575;-88
2023/06/22 10:29:01;;;;;;;35.08;20.48;;;25.10;70.40;;;;;;5035147;27;88314;-87
2023/06/22 10:31:27;;;;;;;33.90;19.73;;;25.00;70.90;;;;;;5015985;28;89444;-90
2023/06/22 10:33:53;;;;;;;30.08;19.60;;;25.10;70.90;;;;;;5017730;28;88192;-89
2023/06/22 10:36:19;;;;;;;25.75;16.38;;;25.10;70.80;;;;;;5032531;28;89176;-87
2023/06/22 10:38:45;;;;;;;25.90;16.40;;;25.10;71.10;;;;;;5016798;28;90724;-87
2023/06/22 10:41:11;;;;;;;27.52;17.65;;;25.10;69.30;;;;;;5035041;28;87299;-89
2023/06/22 10:43:38;;;;;;;23.38;16.58;;;25.10;68.80;;;;;;5020415;28;87328;-85
2023/06/22 10:46:04;;;;;;;20.95;15.80;;;25.10;68.80;;;;;;5033973;28;87788;-90
2023/06/22 10:48:29;;;;;;;19.25;14.43;;;25.20;68.20;;;;;;5014280;28;89399;-87
2023/06/22 10:50:55;;;;;;;22.42;16.42;;;25.20;67.90;;;;;;5014195;28;88925;-90
2023/06/22 10:53:21;;;;;;;22.30;15.65;;;25.20;68.10;;;;;;5011637;28;88057;-88
2023/06/22 10:55:47;;;;;;;22.55;16.08;;;25.20;68.50;;;;;;5014396;28;89801;-93
2023/06/22 10:58:13;;;;;;;21.13;15.43;;;25.20;68.90;;;;;;5033337;28;88365;-90
2023/06/22 11:00:38;;;;;;;40.95;14.85;;;25.20;69.00;;;;;;5011109;28;90075;-88
2023/06/22 11:03:04;;;;;;;22.20;15.18;;;25.20;68.10;;;;;;5014699;28;87029;-86
2023/06/22 11:05:29;;;;;;;18.40;14.52;;;25.20;69.00;;;;;;5011230;28;89275;-88
2023/06/22 11:07:55;;;;;;;18.00;12.82;;;25.20;69.00;;;;;;5012509;28;89234;-91
2023/06/22 11:10:21;;;;;;;17.15;10.80;;;25.20;68.00;;;;;;5013473;28;88903;-86
2023/06/22 11:12:46;;;;;;;16.23;11.40;;;25.30;67.70;;;;;;5034776;27;87733;-91
2023/06/22 11:15:12;;;;;;;19.70;11.85;;;25.30;67.60;;;;;;5034115;28;87227;-87
2023/06/22 11:17:38;;;;;;;14.63;12.18;;;25.30;67.40;;;;;;5016370;28;90165;-88
2023/06/22 11:20:10;;;;;;;17.40;12.65;;;25.40;68.00;;;;;;5015596;28;91583;-88
2023/06/22 11:22:36;;;;;;;16.23;11.07;;;25.40;68.00;;;;;;5015830;28;88787;-90
2023/06/22 11:25:02;;;;;;;18.30;11.50;;;25.40;67.30;;;;;;5033235;28;88470;-88
2023/06/22 11:27:28;;;;;;;13.07;10.18;;;25.40;67.60;;;;;;5015496;28;90760;-86
2023/06/22 11:29:53;;;;;;;14.10;10.20;;;25.50;67.30;;;;;;5033178;28;87968;-88
2023/06/22 11:32:19;;;;;;;14.15;9.45;;;25.50;66.80;;;;;;5032605;28;87408;-87
2023/06/22 11:35:00;;;;;;;12.40;10.02;;;25.50;66.50;;;;;;5032819;28;87474;-89
2023/06/22 11:37:26;;;;;;;11.43;9.18;;;25.50;66.60;;;;;;5013162;28;90543;-92
2023/06/22 11:39:54;;;;;;;12.18;9.32;;;25.50;66.60;;;;;;5033796;28;87969;-87
2023/06/22 11:42:20;;;;;;;12.13;9.27;;;25.50;66.50;;;;;;5014401;28;87894;-88
2023/06/22 11:44:45;;;;;;;12.20;9.00;;;25.50;66.30;;;;;;5034732;28;88219;-87
2023/06/22 11:47:11;;;;;;;10.05;8.90;;;25.50;66.20;;;;;;5035540;28;89251;-90
2023/06/22 11:49:37;;;;;;;12.43;9.48;;;25.50;66.00;;;;;;5016432;28;90785;-87
2023/06/22 11:52:02;;;;;;;11.80;9.10;;;25.50;66.20;;;;;;5033951;28;86957;-86
2023/06/22 11:54:28;;;;;;;12.93;9.80;;;25.50;65.80;;;;;;5014767;28;89666;-89
2023/06/22 11:56:53;;;;;;;11.38;8.88;;;25.50;66.00;;;;;;5034742;28;88933;-89
2023/06/22 11:59:22;;;;;;;11.68;8.73;;;25.50;65.80;;;;;;5014848;28;89199;-89
2023/06/22 12:01:47;;;;;;;10.07;7.85;;;25.40;65.90;;;;;;5015135;28;87340;-88
2023/06/22 12:04:14;;;;;;;11.68;8.13;;;25.40;65.60;;;;;;5034180;28;86645;-89
2023/06/22 12:06:41;;;;;;;11.15;8.52;;;25.40;65.60;;;;;;5032779;28;87755;-89
2023/06/22 12:09:07;;;;;;;12.27;7.82;;;25.40;65.40;;;;;;5015599;28;90137;-90
2023/06/22 12:11:33;;;;;;;11.75;8.38;;;25.40;65.20;;;;;;5032391;28;88735;-86
2023/06/22 12:14:01;;;;;;;10.07;7.95;;;25.40;65.10;;;;;;5014523;28;89642;-85
2023/06/22 12:16:30;;;;;;;11.57;8.63;;;25.40;65.20;;;;;;5015480;28;90639;-93
2023/06/22 12:18:56;;;;;;;;;;;25.40;65.20;;;;;;5014246;28;89366;-87
2023/06/22 12:21:22;;;;;;;9.00;7.88;;;25.40;65.40;;;;;;4998954;28;86938;-88
2023/06/22 12:23:47;;;;;;;13.27;9.65;;;25.40;65.20;;;;;;5014941;28;89889;-90
2023/06/22 12:26:13;;;;;;;13.27;9.20;;;25.40;65.50;;;;;;5014339;27;90747;-86
2023/06/22 12:28:38;;;;;;;12.68;9.10;;;25.40;65.60;;;;;;5014791;28;90222;-90
2023/06/22 12:31:04;;;;;;;11.05;9.88;;;25.40;65.70;;;;;;5033197;28;86959;-88
2023/06/22 12:33:30;;;;;;;12.38;10.18;;;25.40;65.50;;;;;;5014197;28;89924;-86
2023/06/22 12:35:56;;;;;;;10.82;9.07;;;25.40;65.40;;;;;;5034989;28;89684;-86
2023/06/22 12:38:22;;;;;;;11.95;9.68;;;25.40;65.70;;;;;;5034266;28;88302;-89
2023/06/22 12:40:49;;;;;;;15.18;9.90;;;25.40;65.60;;;;;;5035707;28;87863;-92
2023/06/22 12:43:14;;;;;;;15.27;11.63;;;25.40;65.90;;;;;;5028662;28;87723;-89